Time;durP1;ratioP1;P1;durP2;ratioP2;P2;SDS_P1;SDS_P2;PMS_P1;PMS_P2;Temp;Humidity;BMP_temperature;BMP_pressure;BME280_temperature;BME280_humidity;BME280_pressure;Samples;Min_cycle;Max_cycle;Signal;HPM_P1;HPM_P2
2023/12/24 00:00:23;;;;;;;1.90;1.30;;;;;;;8.19;100.00;99579.22;5035980;28;20209;-70
2023/12/24 00:02:51;;;;;;;0.80;0.80;;;;;;;8.22;100.00;99586.97;5040584;28;20225;-72
2023/12/24 00:05:17;;;;;;;2.10;1.00;;;;;;;8.20;100.00;99586.22;5042898;28;20274;-70
2023/12/24 00:07:44;;;;;;;1.33;1.10;;;;;;;8.20;100.00;99586.22;5039487;28;20201;-72
2023/12/24 00:10:11;;;;;;;1.73;1.17;;;;;;;8.21;100.00;99573.81;5039138;28;20209;-73
2023/12/24 00:12:38;;;;;;;1.43;1.00;;;;;;;8.16;100.00;99576.78;5043703;28;20225;-72
2023/12/24 00:15:05;;;;;;;1.53;0.90;;;;;;;8.15;100.00;99595.44;5037152;28;20229;-72
2023/12/24 00:17:32;;;;;;;0.57;0.57;;;;;;;8.13;100.00;99584.94;5038958;28;20208;-72
2023/12/24 00:20:00;;;;;;;1.13;0.80;;;;;;;8.14;100.00;99591.09;5040969;28;20645;-72
2023/12/24 00:22:29;;;;;;;0.77;0.70;;;;;;;8.15;100.00;99585.69;5034141;28;20240;-72
2023/12/24 00:24:56;;;;;;;1.27;0.77;;;;;;;8.15;100.00;99580.38;5036199;28;20256;-71
2023/12/24 00:27:22;;;;;;;0.80;0.70;;;;;;;8.17;100.00;99596.19;5040312;28;20226;-71
2023/12/24 00:29:49;;;;;;;1.43;0.80;;;;;;;8.17;100.00;99589.09;5041005;28;20229;-71
2023/12/24 00:32:15;;;;;;;1.13;0.80;;;;;;;8.19;100.00;99589.81;5039278;28;20229;-71
2023/12/24 00:34:42;;;;;;;0.80;0.80;;;;;;;8.17;100.00;99593.53;5043171;28;20212;-71
2023/12/24 00:37:10;;;;;;;1.57;0.90;;;;;;;8.16;100.00;99584.72;5041298;28;20214;-70
2023/12/24 00:39:36;;;;;;;1.33;0.93;;;;;;;8.14;100.00;99589.28;5037677;28;20201;-72
2023/12/24 00:42:03;;;;;;;1.20;0.90;;;;;;;8.18;100.00;99596.09;5042032;28;20221;-71
2023/12/24 00:44:29;;;;;;;2.73;2.03;;;;;;;8.18;100.00;99593.44;5034304;28;20233;-71
2023/12/24 00:46:56;;;;;;;1.20;1.10;;;;;;;8.21;100.00;99589.72;5044211;28;20213;-71
2023/12/24 00:49:25;;;;;;;1.47;1.27;;;;;;;8.20;100.00;99574.75;5037884;28;20292;-71
2023/12/24 00:51:53;;;;;;;1.50;1.40;;;;;;;8.19;100.00;99595.13;5039071;28;20225;-71
2023/12/24 00:54:21;;;;;;;1.73;1.60;;;;;;;8.21;100.00;99587.91;5039513;28;20275;-71
2023/12/24 00:56:47;;;;;;;2.67;2.20;;;;;;;8.21;100.00;99579.97;5043926;28;20205;-69
2023/12/24 00:59:13;;;;;;;4.23;2.50;;;;;;;8.18;100.00;99574.88;5040647;28;20206;-70
2023/12/24 01:01:40;;;;;;;3.23;2.93;;;;;;;8.17;100.00;99575.81;5042782;28;20221;-71
2023/12/24 01:04:06;;;;;;;3.10;2.80;;;;;;;8.16;100.00;99574.13;5043488;28;20225;-71
2023/12/24 01:06:33;;;;;;;3.70;3.33;;;;;;;8.12;100.00;99577.94;5045285;28;20213;-71
2023/12/24 01:08:59;;;;;;;4.17;3.33;;;;;;;8.11;100.00;99581.53;5042876;28;20210;-72
2023/12/24 01:11:27;;;;;;;4.30;3.63;;;;;;;8.13;100.00;99586.75;5045366;28;20225;-71
2023/12/24 01:13:53;;;;;;;4.60;3.30;;;;;;;8.13;100.00;99594.69;5041618;28;20193;-70
2023/12/24 01:16:20;;;;;;;4.60;4.20;;;;;;;8.14;100.00;99584.00;5043870;28;20202;-72
2023/12/24 01:18:47;;;;;;;5.70;4.10;;;;;;;8.16;100.00;99579.44;5042323;28;20229;-71
2023/12/24 01:21:13;;;;;;;4.93;4.27;;;;;;;8.17;100.00;99585.59;5038915;28;20202;-71
2023/12/24 01:23:40;;;;;;;4.47;4.10;;;;;;;8.17;100.00;99591.72;5043854;28;20581;-71
2023/12/24 01:26:07;;;;;;;4.03;3.63;;;;;;;8.18;100.00;99590.78;5044789;28;20230;-71
2023/12/24 01:28:35;;;;;;;3.67;3.37;;;;;;;8.14;100.00;99584.00;5037080;28;20210;-70
2023/12/24 01:31:01;;;;;;;3.20;2.90;;;;;;;8.16;100.00;99578.59;5035043;28;20210;-71
2023/12/24 01:33:28;;;;;;;4.03;2.80;;;;;;;8.18;100.00;99588.13;5041938;28;20202;-70
2023/12/24 01:35:55;;;;;;;4.53;2.63;;;;;;;8.17;100.00;99578.47;5037444;28;20205;-71
2023/12/24 01:38:21;;;;;;;3.17;2.87;;;;;;;8.15;100.00;99604.25;5044385;28;20205;-72
2023/12/24 01:40:48;;;;;;;2.67;2.47;;;;;;;8.13;100.00;99584.94;5044464;28;20205;-70
2023/12/24 01:43:15;;;;;;;4.13;2.80;;;;;;;8.14;100.00;99581.34;5042916;28;20222;-71
2023/12/24 01:45:43;;;;;;;4.47;2.60;;;;;;;8.11;100.00;99578.91;5038488;28;20229;-72
2023/12/24 01:48:10;;;;;;;2.60;2.40;;;;;;;8.15;100.00;99583.03;5046919;28;20209;-71
2023/12/24 01:50:37;;;;;;;3.63;2.50;;;;;;;8.15;100.00;99568.94;5044969;28;20198;-70
2023/12/24 01:53:04;;;;;;;3.43;2.27;;;;;;;8.18;100.00;99574.88;5045375;28;20252;-70
2023/12/24 01:55:31;;;;;;;2.83;2.53;;;;;;;8.15;100.00;99582.19;5044017;28;20202;-69
2023/12/24 01:57:58;;;;;;;2.67;2.47;;;;;;;8.14;100.00;99577.84;5043548;28;20209;-72
2023/12/24 02:00:25;;;;;;;2.50;1.90;;;;;;;8.16;100.00;99573.28;5045559;28;20213;-71
2023/12/24 02:02:54;;;;;;;2.10;2.00;;;;;;;8.10;100.00;99579.84;5046109;28;20226;-69
2023/12/24 02:05:20;;;;;;;1.90;1.70;;;;;;;8.09;100.00;99572.84;5050308;28;20225;-72
2023/12/24 02:07:48;;;;;;;2.13;1.50;;;;;;;8.09;100.00;99570.19;5044569;28;20224;-72
2023/12/24 02:10:14;;;;;;;1.80;1.50;;;;;;;8.09;100.00;99578.16;5043793;28;20235;-71
2023/12/24 02:12:41;;;;;;;1.30;1.20;;;;;;;8.12;100.00;99583.25;5047921;28;20257;-72
2023/12/24 02:15:08;;;;;;;2.33;1.37;;;;;;;8.09;100.00;99575.50;5046245;28;20209;-71
2023/12/24 02:17:36;;;;;;;1.37;1.27;;;;;;;8.12;100.00;99572.63;5045900;28;20206;-72
2023/12/24 02:20:05;;;;;;;2.37;1.00;;;;;;;8.15;100.00;99563.63;5041139;28;20201;-70
2023/12/24 02:22:33;;;;;;;1.40;1.13;;;;;;;8.15;100.00;99563.63;5046596;28;20241;-71
2023/12/24 02:24:59;;;;;;;1.60;1.17;;;;;;;8.15;100.00;99567.13;5048479;28;20237;-71
2023/12/24 02:27:36;;;;;;;2.50;1.30;;;;;;;8.14;100.00;99552.16;5048177;28;20205;-70
2023/12/24 02:30:11;;;;;;;1.40;1.30;;;;;;;8.12;100.00;99559.38;5052503;28;20673;-72
2023/12/24 02:32:39;;;;;;;1.60;1.00;;;;;;;8.10;100.00;99537.41;5051819;28;20232;-71
2023/12/24 02:35:08;;;;;;;2.33;1.43;;;;;;;8.10;100.00;99540.06;5048699;28;20210;-71
2023/12/24 02:37:36;;;;;;;1.70;1.30;;;;;;;8.11;100.00;99539.13;5055644;28;20685;-71
2023/12/24 02:40:03;;;;;;;1.70;1.40;;;;;;;8.14;100.00;99538.91;5054627;28;20290;-70
2023/12/24 02:42:29;;;;;;;2.03;1.40;;;;;;;8.11;100.00;99546.22;5055524;28;20676;-71
2023/12/24 02:44:56;;;;;;;1.67;1.50;;;;;;;8.14;100.00;99544.22;5053673;28;20219;-71
2023/12/24 02:47:22;;;;;;;1.97;1.50;;;;;;;8.12;100.00;99540.81;5046996;28;20209;-70
2023/12/24 02:49:51;;;;;;;1.63;1.47;;;;;;;8.13;100.00;99542.50;5054212;28;20700;-72
2023/12/24 02:52:17;;;;;;;3.00;2.10;;;;;;;8.10;100.00;99534.75;5051257;28;20233;-72
2023/12/24 02:54:45;;;;;;;2.77;2.50;;;;;;;8.11;100.00;99533.81;5054465;28;20205;-72
2023/12/24 02:57:11;;;;;;;2.27;2.07;;;;;;;8.10;100.00;99529.47;5053182;28;20734;-71
2023/12/24 02:59:38;;;;;;;3.03;2.20;;;;;;;8.09;100.00;99525.13;5053725;28;20662;-71
2023/12/24 03:02:04;;;;;;;3.00;2.70;;;;;;;8.10;100.00;99525.97;5055764;28;20225;-71
2023/12/24 03:04:31;;;;;;;4.00;3.03;;;;;;;8.11;100.00;99528.50;5052702;28;20224;-71
2023/12/24 03:06:57;;;;;;;3.57;3.27;;;;;;;8.10;100.00;99524.16;5054261;28;20197;-72
2023/12/24 03:09:24;;;;;;;3.97;3.40;;;;;;;8.12;100.00;99529.34;5050131;28;20235;-71
2023/12/24 03:11:52;;;;;;;4.40;3.70;;;;;;;8.12;100.00;99530.22;5052008;28;20220;-72
2023/12/24 03:14:18;;;;;;;4.43;4.03;;;;;;;8.15;100.00;99524.69;5054892;28;20448;-72
2023/12/24 03:16:45;;;;;;;3.70;3.40;;;;;;;8.13;100.00;99521.28;5056571;28;20220;-71
2023/12/24 03:19:12;;;;;;;4.60;3.90;;;;;;;8.14;100.00;99522.16;5053741;28;20243;-71
2023/12/24 03:21:41;;;;;;;3.67;3.37;;;;;;;8.13;100.00;99510.69;5057097;28;20326;-70
2023/12/24 03:24:07;;;;;;;4.77;4.00;;;;;;;8.10;100.00;99516.19;5055423;28;20201;-71
2023/12/24 03:26:34;;;;;;;6.73;6.03;;;;;;;8.14;100.00;99506.22;5054182;28;20794;-70
2023/12/24 03:29:01;;;;;;;5.73;5.13;;;;;;;8.13;100.00;99516.00;5055583;28;20672;-72
2023/12/24 03:31:28;;;;;;;8.17;5.10;;;;;;;8.15;100.00;99499.97;5049481;28;20229;-71
2023/12/24 03:33:55;;;;;;;5.67;5.07;;;;;;;8.19;100.00;99509.41;5052504;28;20664;-71
2023/12/24 03:36:22;;;;;;;6.27;5.13;;;;;;;8.18;100.00;99503.25;5053558;28;20209;-71
2023/12/24 03:38:48;;;;;;;5.90;5.13;;;;;;;8.21;100.00;99502.19;5053570;28;20201;-71
2023/12/24 03:41:15;;;;;;;5.97;4.97;;;;;;;8.19;100.00;99512.91;5052602;28;20202;-71
2023/12/24 03:43:42;;;;;;;5.93;5.33;;;;;;;8.24;100.00;99518.72;5051366;28;20224;-72
2023/12/24 03:46:10;;;;;;;6.03;5.10;;;;;;;8.25;100.00;99519.56;5053066;28;20232;-71
2023/12/24 03:48:37;;;;;;;6.53;5.47;;;;;;;8.24;100.00;99520.56;5050800;28;20209;-71
2023/12/24 03:51:04;;;;;;;6.70;5.17;;;;;;;8.21;100.00;99518.97;5052649;28;20201;-71
2023/12/24 03:53:30;;;;;;;8.07;5.17;;;;;;;8.24;100.00;99509.94;5048920;28;20208;-72
2023/12/24 03:55:56;;;;;;;5.70;5.00;;;;;;;8.21;100.00;99511.00;5055312;28;20207;-71
2023/12/24 03:58:22;;;;;;;5.30;4.80;;;;;;;8.21;100.00;99507.50;5051593;28;20201;-71
2023/12/24 04:00:49;;;;;;;5.30;4.80;;;;;;;8.19;100.00;99498.81;5058162;28;20206;-71
2023/12/24 04:03:16;;;;;;;5.77;5.23;;;;;;;8.20;100.00;99503.16;5047613;28;20222;-71
2023/12/24 04:05:43;;;;;;;8.93;6.13;;;;;;;8.20;100.00;99514.59;5054515;28;20221;-71
2023/12/24 04:08:09;;;;;;;11.63;6.93;;;;;;;8.19;100.00;99509.41;5053281;28;20223;-71
2023/12/24 04:10:39;;;;;;;8.20;7.23;;;;;;;8.16;100.00;99505.16;5053341;28;20466;-72
2023/12/24 04:13:06;;;;;;;9.10;7.83;;;;;;;8.22;100.00;99511.84;5054084;28;20463;-72
2023/12/24 04:15:33;;;;;;;10.20;8.10;;;;;;;8.24;100.00;99510.75;5051979;28;20212;-71
2023/12/24 04:18:00;;;;;;;10.30;9.20;;;;;;;8.29;100.00;99511.28;5048032;28;20207;-72
2023/12/24 04:20:27;;;;;;;10.37;8.73;;;;;;;8.29;100.00;99521.91;5047818;28;20205;-70
2023/12/24 04:22:54;;;;;;;11.10;8.70;;;;;;;8.29;100.00;99519.25;5048653;28;20248;-72
2023/12/24 04:25:21;;;;;;;14.13;8.57;;;;;;;8.30;100.00;99507.66;5052834;28;20232;-72
2023/12/24 04:27:47;;;;;;;10.83;8.20;;;;;;;8.33;100.00;99501.34;5049993;28;20217;-71
2023/12/24 04:30:14;;;;;;;10.27;8.57;;;;;;;8.32;100.00;99503.13;5055719;28;20293;-71
2023/12/24 04:32:40;;;;;;;9.80;8.43;;;;;;;8.31;100.00;99496.09;5045235;28;20224;-71
2023/12/24 04:35:07;;;;;;;9.53;8.23;;;;;;;8.34;100.00;99493.28;5052850;28;20216;-72
2023/12/24 04:37:36;;;;;;;9.33;8.10;;;;;;;8.32;100.00;99484.56;5052582;28;20202;-70
2023/12/24 04:40:04;;;;;;;11.07;8.33;;;;;;;8.32;100.00;99487.22;5053191;28;20305;-71
2023/12/24 04:42:31;;;;;;;8.47;7.57;;;;;;;8.31;100.00;99482.84;5049316;28;20735;-71
2023/12/24 04:44:57;;;;;;;10.80;8.83;;;;;;;8.31;100.00;99488.16;5050422;28;20584;-71
2023/12/24 04:47:24;;;;;;;9.33;8.23;;;;;;;8.29;100.00;99484.75;5048361;28;20241;-72
2023/12/24 04:49:50;;;;;;;10.60;8.77;;;;;;;8.26;100.00;99479.66;5056237;28;20209;-72
2023/12/24 04:52:17;;;;;;;10.03;8.80;;;;;;;8.22;100.00;99467.59;5049801;28;20225;-71
2023/12/24 04:54:44;;;;;;;9.90;7.83;;;;;;;8.23;100.00;99473.75;5046823;28;20205;-71
2023/12/24 04:57:11;;;;;;;9.13;7.40;;;;;;;8.23;100.00;99463.16;5054420;28;20262;-72
2023/12/24 04:59:37;;;;;;;9.00;8.10;;;;;;;8.24;100.00;99473.63;5051429;28;20202;-72
2023/12/24 05:02:04;;;;;;;9.67;8.63;;;;;;;8.25;100.00;99477.97;5052283;28;20592;-71
2023/12/24 05:04:32;;;;;;;9.33;8.23;;;;;;;8.24;100.00;99465.66;5051255;28;20200;-71
2023/12/24 05:06:59;;;;;;;9.53;6.97;;;;;;;8.24;100.00;99472.81;5050469;28;20298;-71
2023/12/24 05:09:26;;;;;;;7.50;6.80;;;;;;;8.25;100.00;99461.22;5051978;28;20208;-71
2023/12/24 05:11:53;;;;;;;6.83;6.23;;;;;;;8.24;100.00;99464.84;5047677;28;20252;-71
2023/12/24 05:14:20;;;;;;;7.03;6.33;;;;;;;8.25;100.00;99454.09;5049797;28;20235;-72
2023/12/24 05:16:47;;;;;;;5.80;5.30;;;;;;;8.25;100.00;99445.28;5055140;28;20214;-69
2023/12/24 05:19:13;;;;;;;5.10;4.60;;;;;;;8.27;100.00;99457.50;5052224;28;20215;-71
2023/12/24 05:21:39;;;;;;;4.57;4.17;;;;;;;8.28;100.00;99442.41;5055955;22;22181;-81
2023/12/24 05:24:06;;;;;;;3.63;3.40;;;;;;;8.29;100.00;99452.91;5009545;28;20207;-79
2023/12/24 05:26:33;;;;;;;3.70;2.73;;;;;;;8.29;100.00;99452.91;5012600;28;20230;-81
2023/12/24 05:29:01;;;;;;;3.10;2.80;;;;;;;8.33;100.00;99454.44;5015083;28;20213;-79
2023/12/24 05:31:27;;;;;;;2.47;2.27;;;;;;;8.33;100.00;99451.78;5006375;28;20246;-79
2023/12/24 05:33:54;;;;;;;2.83;2.63;;;;;;;8.37;100.00;99446.25;4995599;28;20295;-81
2023/12/24 05:36:21;;;;;;;2.53;2.03;;;;;;;8.38;100.00;99446.16;5006247;28;20211;-79
2023/12/24 05:38:48;;;;;;;2.90;2.60;;;;;;;8.37;100.00;99446.25;5017380;28;20217;-78
2023/12/24 05:41:16;;;;;;;3.50;2.40;;;;;;;8.41;100.00;99437.13;5016636;28;20238;-79
2023/12/24 05:43:42;;;;;;;2.47;1.87;;;;;;;8.39;100.00;99437.22;5007037;28;20207;-79
2023/12/24 05:46:13;;;;;;;1.73;1.57;;;;;;;8.41;100.00;99439.78;5015743;28;20227;-81
2023/12/24 05:48:39;;;;;;;2.43;1.50;;;;;;;8.45;100.00;99442.06;5010459;28;20287;-79
2023/12/24 05:51:06;;;;;;;1.47;1.37;;;;;;;8.46;100.00;99429.63;5002702;28;20235;-79
2023/12/24 05:53:32;;;;;;;1.67;1.13;;;;;;;8.48;100.00;99435.69;5010684;28;20211;-80
2023/12/24 05:55:59;;;;;;;1.23;1.13;;;;;;;8.49;100.00;99426.78;5013140;28;20206;-79
2023/12/24 05:58:25;;;;;;;1.10;1.10;;;;;;;8.52;100.00;99413.28;5012080;28;20216;-79
2023/12/24 06:00:52;;;;;;;1.27;1.10;;;;;;;8.55;100.00;99421.03;5019440;28;20206;-82
2023/12/24 06:03:20;;;;;;;1.73;0.97;;;;;;;8.56;100.00;99420.06;5008202;28;20214;-81
2023/12/24 06:05:46;;;;;;;1.17;0.80;;;;;;;8.53;100.00;99405.22;5008310;28;20238;-80
2023/12/24 06:08:14;;;;;;;1.47;0.90;;;;;;;8.52;100.00;99411.47;5009852;28;20214;-80
2023/12/24 06:10:41;;;;;;;0.83;0.73;;;;;;;8.52;100.00;99422.09;5005283;28;20215;-80
2023/12/24 06:13:07;;;;;;;1.37;0.70;;;;;;;8.57;100.00;99421.75;5012962;28;20234;-80
2023/12/24 06:15:34;;;;;;;1.67;1.20;;;;;;;8.53;100.00;99418.47;5009890;28;20210;-80
2023/12/24 06:18:01;;;;;;;0.70;0.70;;;;;;;8.56;100.00;99425.38;5012931;28;20235;-80
2023/12/24 06:20:29;;;;;;;1.33;0.90;;;;;;;8.55;100.00;99424.53;5020126;28;20268;-79
2023/12/24 06:22:56;;;;;;;1.17;0.70;;;;;;;8.53;100.00;99407.84;5008156;28;20235;-80
2023/12/24 06:25:22;;;;;;;1.83;0.70;;;;;;;8.53;100.00;99418.47;5008781;28;20207;-82
2023/12/24 06:27:49;;;;;;;1.07;0.60;;;;;;;8.59;100.00;99426.00;5010087;28;20694;-81
2023/12/24 06:30:15;;;;;;;1.00;0.57;;;;;;;8.57;100.00;99419.09;5021223;28;20584;-79
2023/12/24 06:32:43;;;;;;;1.63;0.63;;;;;;;8.60;100.00;99421.50;5013156;28;20598;-80
2023/12/24 06:35:10;;;;;;;0.60;0.60;;;;;;;8.63;100.00;99414.16;5016381;28;20215;-80
2023/12/24 06:37:38;;;;;;;0.50;0.50;;;;;;;8.67;100.00;99415.63;5015738;28;20207;-79
2023/12/24 06:40:06;;;;;;;0.30;0.30;;;;;;;8.68;100.00;99412.00;5016976;28;20270;-80
2023/12/24 06:42:33;;;;;;;1.23;0.70;;;;;;;8.69;100.00;99407.56;5015696;28;20226;-81
2023/12/24 06:44:59;;;;;;;0.50;0.50;;;;;;;8.71;100.00;99421.56;5015503;28;20624;-80
2023/12/24 06:47:26;;;;;;;1.00;1.00;;;;;;;8.66;100.00;99421.91;5015954;28;20266;-80
2023/12/24 06:49:52;;;;;;;1.30;0.60;;;;;;;8.67;100.00;99428.06;5016157;28;20277;-80
2023/12/24 06:52:19;;;;;;;0.60;0.60;;;;;;;8.69;100.00;99421.66;5015697;28;20246;-79
2023/12/24 06:54:47;;;;;;;1.00;0.90;;;;;;;8.68;100.00;99421.78;5004828;28;20262;-81
2023/12/24 06:57:13;;;;;;;1.00;0.60;;;;;;;8.71;100.00;99424.22;4995838;28;20214;-79
2023/12/24 06:59:40;;;;;;;0.60;0.60;;;;;;;8.73;100.00;99430.25;4996117;28;20721;-80
2023/12/24 07:02:07;;;;;;;1.83;1.20;;;;;;;8.74;100.00;99426.66;4995946;28;20599;-79
2023/12/24 07:04:33;;;;;;;0.80;0.77;;;;;;;8.78;100.00;99428.09;4995629;28;20890;-80
2023/12/24 07:07:00;;;;;;;0.67;0.67;;;;;;;8.77;100.00;99414.97;4995558;28;20228;-80
2023/12/24 07:09:26;;;;;;;0.47;0.40;;;;;;;8.81;100.00;99417.25;4994638;28;20212;-80
2023/12/24 07:11:54;;;;;;;0.30;0.27;;;;;;;8.82;100.00;99416.28;4995288;28;20591;-79
2023/12/24 07:14:20;;;;;;;0.20;0.20;;;;;;;8.87;100.00;99405.31;4994877;28;20212;-80
2023/12/24 07:16:47;;;;;;;0.30;0.30;;;;;;;8.86;100.00;99408.94;4995525;28;20211;-79
2023/12/24 07:19:13;;;;;;;1.70;0.40;;;;;;;8.85;100.00;99399.28;4995174;28;20214;-80
2023/12/24 07:21:40;;;;;;;0.10;0.10;;;;;;;8.85;100.00;99408.09;4995890;28;20243;-81
2023/12/24 07:24:07;;;;;;;0.30;0.20;;;;;;;8.88;100.00;99401.69;4995582;28;20198;-79
2023/12/24 07:26:34;;;;;;;0.87;0.20;;;;;;;8.87;100.00;99405.31;4995495;28;20270;-79
2023/12/24 07:29:02;;;;;;;0.20;0.20;;;;;;;8.84;100.00;99390.47;4996207;28;20222;-81
2023/12/24 07:31:29;;;;;;;0.30;0.30;;;;;;;8.83;100.00;99388.75;4995177;28;20220;-79
2023/12/24 07:33:55;;;;;;;0.30;0.30;;;;;;;8.85;100.00;99376.22;4995004;28;20208;-79
2023/12/24 07:36:22;;;;;;;0.20;0.20;;;;;;;8.88;100.00;99376.00;4994716;28;20721;-79
2023/12/24 07:38:48;;;;;;;0.40;0.30;;;;;;;8.89;100.00;99392.78;4995237;28;20234;-80
2023/12/24 07:41:15;;;;;;;0.30;0.20;;;;;;;8.87;100.00;99390.22;4995581;28;20244;-80
2023/12/24 07:43:41;;;;;;;0.30;0.30;;;;;;;8.90;100.00;99394.47;4995239;28;20786;-81
2023/12/24 07:46:09;;;;;;;1.00;0.30;;;;;;;8.91;100.00;99380.22;4994902;28;20223;-81
2023/12/24 07:48:36;;;;;;;0.40;0.40;;;;;;;8.89;100.00;99398.94;4994289;28;20203;-80
2023/12/24 07:51:03;;;;;;;0.27;0.27;;;;;;;8.86;100.00;99393.84;4994266;28;20218;-80
2023/12/24 07:53:32;;;;;;;0.20;0.20;;;;;;;8.89;100.00;99393.63;5002058;28;20203;-80
2023/12/24 07:55:59;;;;;;;0.20;0.20;;;;;;;8.91;100.00;99378.41;5004997;28;20195;-80
2023/12/24 07:58:26;;;;;;;0.60;0.30;;;;;;;8.92;100.00;99380.13;5013382;28;20203;-81
2023/12/24 08:00:52;;;;;;;0.20;0.20;;;;;;;8.94;100.00;99375.53;5018706;28;20574;-81
2023/12/24 08:03:20;;;;;;;0.63;0.30;;;;;;;8.96;100.00;99373.59;5013820;28;20217;-81
2023/12/24 08:05:47;;;;;;;0.20;0.20;;;;;;;8.97;100.00;99377.09;5013033;28;20206;-81
2023/12/24 08:08:13;;;;;;;0.57;0.10;;;;;;;8.95;100.00;99379.88;5014616;28;20210;-80
2023/12/24 08:10:40;;;;;;;0.33;0.20;;;;;;;8.95;100.00;99371.91;5018540;28;20301;-79
2023/12/24 08:13:06;;;;;;;0.30;0.30;;;;;;;8.97;100.00;99380.59;5015315;28;20234;-80
2023/12/24 08:15:33;;;;;;;0.23;0.23;;;;;;;9.00;100.00;99379.50;5017861;28;20210;-80
2023/12/24 08:17:59;;;;;;;0.10;0.10;;;;;;;9.00;100.00;99388.31;5018424;28;20583;-80
2023/12/24 08:20:27;;;;;;;0.13;0.13;;;;;;;9.07;100.00;99386.06;5017984;28;20218;-81
2023/12/24 08:22:54;;;;;;;0.47;0.10;;;;;;;9.11;100.00;99368.06;5017084;28;20245;-81
2023/12/24 08:25:20;;;;;;;0.57;0.37;;;;;;;9.11;100.00;99360.94;5013696;28;20211;-81
2023/12/24 08:27:46;;;;;;;0.23;0.20;;;;;;;9.10;100.00;99366.38;4997154;28;20704;-81
2023/12/24 08:30:14;;;;;;;0.20;0.20;;;;;;;9.12;100.00;99359.16;4995516;28;20230;-81
2023/12/24 08:32:40;;;;;;;0.37;0.30;;;;;;;9.09;100.00;99372.66;4994660;28;20231;-80
2023/12/24 08:35:10;;;;;;;0.20;0.20;;;;;;;9.11;100.00;99368.06;4994961;28;20219;-81
2023/12/24 08:37:38;;;;;;;0.20;0.20;;;;;;;9.14;100.00;99362.50;4998181;28;20574;-81
2023/12/24 08:40:06;;;;;;;0.10;0.10;;;;;;;9.17;100.00;99365.75;4995578;28;20203;-80
2023/12/24 08:42:32;;;;;;;0.67;0.50;;;;;;;9.20;100.00;99376.16;4995100;28;20237;-81
2023/12/24 08:44:59;;;;;;;0.90;0.67;;;;;;;9.20;100.00;99370.00;4996858;28;20298;-82
2023/12/24 08:47:25;;;;;;;0.90;0.80;;;;;;;9.18;100.00;99367.47;4998387;28;20227;-81
2023/12/24 08:49:52;;;;;;;0.20;0.20;;;;;;;9.24;100.00;99374.13;4998327;28;20620;-81
2023/12/24 08:52:18;;;;;;;0.70;0.30;;;;;;;9.27;100.00;99361.44;4998278;28;20235;-81
2023/12/24 08:54:46;;;;;;;0.30;0.30;;;;;;;9.30;100.00;99378.97;4998249;28;20237;-81
2023/12/24 08:57:13;;;;;;;1.37;0.40;;;;;;;9.30;100.00;99385.13;4997008;28;20775;-81
2023/12/24 08:59:39;;;;;;;0.43;0.43;;;;;;;9.34;100.00;99385.69;4995897;28;20247;-81
2023/12/24 09:02:06;;;;;;;0.50;0.50;;;;;;;9.32;100.00;99371.69;4996741;28;20233;-82
2023/12/24 09:04:33;;;;;;;0.73;0.70;;;;;;;9.35;100.00;99368.78;4996113;28;20311;-80
2023/12/24 09:06:59;;;;;;;0.70;0.60;;;;;;;9.38;100.00;99376.53;5008709;28;20223;-81
2023/12/24 09:09:26;;;;;;;0.43;0.40;;;;;;;9.40;100.00;99369.28;5016949;28;20566;-81
2023/12/24 09:11:54;;;;;;;0.50;0.50;;;;;;;9.36;100.00;99373.16;5015817;28;20765;-81
2023/12/24 09:14:20;;;;;;;0.87;0.67;;;;;;;9.41;100.00;99357.69;5009125;28;20203;-82
2023/12/24 09:16:47;;;;;;;0.63;0.50;;;;;;;9.44;100.00;99356.63;4995200;28;20847;-81
2023/12/24 09:19:13;;;;;;;1.43;0.83;;;;;;;9.43;100.00;99369.06;4994688;28;20209;-81
2023/12/24 09:21:40;;;;;;;0.70;0.60;;;;;;;9.47;100.00;99361.69;4999166;28;20241;-81
2023/12/24 09:24:07;;;;;;;1.43;0.70;;;;;;;9.50;100.00;99361.41;5003594;28;20203;-81
2023/12/24 09:26:33;;;;;;;1.20;0.50;;;;;;;9.47;100.00;99364.34;5010049;28;20877;-78
2023/12/24 09:29:03;;;;;;;0.50;0.43;;;;;;;9.49;100.00;99371.25;5004751;28;20643;-82
2023/12/24 09:31:29;;;;;;;0.43;0.43;;;;;;;9.51;100.00;99369.28;5011114;28;20242;-80
2023/12/24 09:33:56;;;;;;;1.00;0.80;;;;;;;9.56;100.00;99374.22;5009349;28;20211;-80
2023/12/24 09:36:22;;;;;;;0.40;0.40;;;;;;;9.57;100.00;99382.09;5009551;28;20208;-81
2023/12/24 09:38:49;;;;;;;1.60;0.70;;;;;;;9.59;100.00;99382.81;5007542;28;20562;-81
2023/12/24 09:41:18;;;;;;;0.60;0.60;;;;;;;9.62;100.00;99376.41;5006207;28;20242;-82
2023/12/24 09:43:46;;;;;;;0.70;0.60;;;;;;;9.64;100.00;99383.31;5008776;28;20207;-77
2023/12/24 09:46:14;;;;;;;0.60;0.60;;;;;;;9.62;100.00;99374.59;5005708;28;20209;-81
2023/12/24 09:48:41;;;;;;;0.83;0.60;;;;;;;9.62;100.00;99369.28;4999324;28;20242;-81
2023/12/24 09:51:08;;;;;;;1.13;0.80;;;;;;;9.67;100.00;99369.75;5002937;28;20203;-79
2023/12/24 09:53:35;;;;;;;0.60;0.60;;;;;;;9.68;100.00;99381.22;5009620;28;20265;-80
2023/12/24 09:56:02;;;;;;;1.17;0.63;;;;;;;9.72;100.00;99374.69;5006374;28;20204;-81
2023/12/24 09:58:29;;;;;;;16.97;10.40;;;;;;;9.73;100.00;99371.91;5006708;28;20197;-81
2023/12/24 10:00:58;;;;;;;2.07;1.93;;;;;;;9.71;100.00;99370.34;5013097;28;20215;-80
2023/12/24 10:03:26;;;;;;;1.50;1.37;;;;;;;9.72;100.00;99388.84;5013278;28;20210;-80
2023/12/24 10:05:59;;;;;;;0.87;0.87;;;;;;;9.79;100.00;99383.03;5005715;28;20215;-80
2023/12/24 10:08:26;;;;;;;1.07;0.90;;;;;;;9.79;100.00;99385.69;5007145;28;20301;-80
2023/12/24 10:10:52;;;;;;;3.60;2.03;;;;;;;9.74;100.00;99381.59;5007843;28;20217;-81
2023/12/24 10:13:20;;;;;;;2.57;1.87;;;;;;;9.75;100.00;99385.09;5008102;28;20218;-80
2023/12/24 10:15:46;;;;;;;2.80;1.40;;;;;;;9.78;100.00;99370.72;5005683;28;21268;-80
2023/12/24 10:18:17;;;;;;;1.23;0.87;;;;;;;9.81;100.00;99359.84;5004054;28;20561;-80
2023/12/24 10:20:45;;;;;;;3.33;2.40;;;;;;;9.78;100.00;99354.75;5006126;28;20237;-80
2023/12/24 10:23:11;;;;;;;1.20;1.00;;;;;;;9.79;100.00;99367.09;5015365;28;20241;-79
2023/12/24 10:25:38;;;;;;;0.97;0.87;;;;;;;9.79;100.00;99362.63;5005721;28;20208;-78
2023/12/24 10:28:07;;;;;;;2.30;1.40;;;;;;;9.82;100.00;99362.38;5009585;28;20635;-80
2023/12/24 10:30:35;;;;;;;1.23;1.13;;;;;;;9.86;100.00;99355.81;5005561;28;20582;-77
2023/12/24 10:33:08;;;;;;;2.40;1.10;;;;;;;9.89;100.00;99357.38;5006929;28;20267;-81
2023/12/24 10:35:35;;;;;;;1.87;1.10;;;;;;;9.91;100.00;99360.78;5009235;28;20204;-78
2023/12/24 10:38:12;;;;;;;1.53;1.30;;;;;;;9.94;100.00;99363.19;5008614;28;20210;-80
2023/12/24 10:40:39;;;;;;;3.03;2.07;;;;;;;9.94;100.00;99368.50;5010456;28;20192;-75
2023/12/24 10:43:05;;;;;;;4.43;3.67;;;;;;;9.95;100.00;99368.38;5007296;28;20227;-80
2023/12/24 10:45:32;;;;;;;4.13;3.73;;;;;;;9.99;100.00;99374.31;5008454;28;20226;-80
2023/12/24 10:47:58;;;;;;;7.63;7.13;;;;;;;9.96;100.00;99364.75;5007408;28;20722;-77
2023/12/24 10:50:25;;;;;;;3.80;3.40;;;;;;;10.02;100.00;99343.00;5011494;28;20326;-77
2023/12/24 10:52:52;;;;;;;3.83;3.50;;;;;;;10.06;100.00;99338.25;5012714;28;20220;-81
2023/12/24 10:55:21;;;;;;;3.60;2.83;;;;;;;10.06;100.00;99340.91;5009126;28;20248;-82
2023/12/24 10:57:56;;;;;;;2.30;2.20;;;;;;;10.09;100.00;99327.34;5012464;28;20215;-80
2023/12/24 11:00:22;;;;;;;3.27;3.03;;;;;;;10.13;100.00;99336.78;5012014;28;20221;-82
2023/12/24 11:02:49;;;;;;;4.37;3.97;;;;;;;10.10;100.00;99324.56;5008403;28;20237;-81
2023/12/24 11:05:50;;;;;;;3.60;2.50;;;;;;;10.18;100.00;99325.75;5009756;28;20765;-81
2023/12/24 11:08:29;;;;;;;9.93;6.70;;;;;;;10.19;100.00;99317.69;5010080;28;20234;-81
2023/12/24 11:10:57;;;;;;;2.90;2.10;;;;;;;10.17;100.00;99324.91;5008225;28;20203;-83
2023/12/24 11:13:46;;;;;;;1.90;1.70;;;;;;;10.19;100.00;99307.06;5009592;28;20204;-82
2023/12/24 11:16:13;;;;;;;1.70;1.60;;;;;;;10.22;100.00;99317.41;5010402;28;20224;-81
2023/12/24 11:18:41;;;;;;;1.70;1.60;;;;;;;10.26;100.00;99308.22;5008605;28;20698;-81
2023/12/24 11:21:08;;;;;;;4.57;4.27;;;;;;;10.25;100.00;99316.31;5006628;28;20705;-81
2023/12/24 11:23:35;;;;;;;1.80;1.70;;;;;;;10.28;100.00;99310.75;5010235;28;20217;-80
2023/12/24 11:26:30;;;;;;;3.27;3.07;;;;;;;10.31;100.00;99310.50;5012135;28;20215;-79
2023/12/24 11:28:58;;;;;;;3.37;3.17;;;;;;;10.26;100.00;99305.53;5013297;28;20223;-82
2023/12/24 11:33:55;;;;;;;2.00;1.90;;;;;;;10.31;100.00;99292.72;5000099;28;20225;-71